Time;durP1;ratioP1;P1;durP2;ratioP2;P2;SDS_P1;SDS_P2;PMS_P1;PMS_P2;Temp;Humidity;BMP_temperature;BMP_pressure;BME280_temperature;BME280_humidity;BME280_pressure;Samples;Min_cycle;Max_cycle;Signal;HPM_P1;HPM_P2
2021/03/12 00:01:52;;;;;;;29.42;13.27;;;;;;;-0.71;79.33;97538.41;5023989;28;21036;-64
2021/03/12 00:04:36;;;;;;;20.58;10.52;;;;;;;-0.62;78.27;97607.41;5024566;28;20073;-65
2021/03/12 00:07:21;;;;;;;28.33;12.45;;;;;;;-0.45;78.92;97602.34;5023216;28;20114;-65
2021/03/12 00:10:09;;;;;;;25.17;12.18;;;;;;;-0.63;78.40;97567.69;5024606;28;20036;-65
2021/03/12 00:12:54;;;;;;;27.13;12.00;;;;;;;-0.54;76.59;97522.47;5024811;28;20045;-64
2021/03/12 00:15:38;;;;;;;25.13;11.63;;;;;;;-0.54;76.49;97580.38;5022734;28;20087;-63
2021/03/12 00:18:38;;;;;;;21.48;10.52;;;;;;;-0.82;76.32;97558.63;5023441;28;20052;-63
2021/03/12 00:21:24;;;;;;;22.08;10.15;;;;;;;-1.17;77.27;97537.97;5023977;28;20090;-63
2021/03/12 00:24:09;;;;;;;25.52;11.55;;;;;;;-0.62;77.70;97596.53;5024557;28;20049;-65
2021/03/12 00:26:58;;;;;;;23.02;10.18;;;;;;;-0.65;77.72;97597.09;5023480;28;20045;-64
2021/03/12 00:29:42;;;;;;;24.40;11.57;;;;;;;-1.02;77.23;97553.34;5023072;28;20043;-67
2021/03/12 00:32:26;;;;;;;23.00;11.77;;;;;;;-1.08;76.95;97527.31;5022558;28;20036;-67
2021/03/12 00:35:11;;;;;;;24.35;11.90;;;;;;;-0.63;77.61;97556.81;5023821;28;20475;-68
2021/03/12 00:37:55;;;;;;;24.05;10.27;;;;;;;-1.41;76.89;97468.34;5022940;28;20048;-67
2021/03/12 00:40:54;;;;;;;25.98;11.73;;;;;;;-1.59;78.59;97450.81;5022531;28;20123;-68
2021/03/12 00:43:39;;;;;;;24.38;8.32;;;;;;;-1.03;78.35;97551.72;5023947;28;20056;-66
2021/03/12 00:46:30;;;;;;;33.65;13.13;;;;;;;-0.87;79.20;97542.34;5023202;28;20044;-68
2021/03/12 00:49:14;;;;;;;28.73;12.05;;;;;;;-2.18;78.47;97349.75;5022755;28;20052;-68
2021/03/12 00:51:58;;;;;;;24.80;10.43;;;;;;;-1.08;79.19;97549.88;5023357;28;20051;-66
2021/03/12 00:54:42;;;;;;;24.08;11.50;;;;;;;-1.05;78.77;97559.34;5024047;28;20471;-64
2021/03/12 00:57:26;;;;;;;25.50;11.55;;;;;;;-1.44;79.59;97517.81;5022069;28;20072;-64
2021/03/12 01:00:11;;;;;;;23.10;11.13;;;;;;;-0.93;79.48;97563.31;5022006;28;20047;-65
2021/03/12 01:02:55;;;;;;;25.13;11.40;;;;;;;-0.84;79.27;97563.53;5024067;28;20056;-65
2021/03/12 01:05:41;;;;;;;27.20;11.73;;;;;;;-0.66;77.17;97557.38;5022695;28;20516;-65
2021/03/12 01:08:25;;;;;;;22.80;10.63;;;;;;;-0.80;76.86;97545.53;5024214;28;20056;-64
2021/03/12 01:11:09;;;;;;;25.45;11.80;;;;;;;-0.94;77.83;97539.16;5023356;28;20095;-65
2021/03/12 01:13:53;;;;;;;25.80;12.75;;;;;;;-1.22;77.00;97458.41;5022721;28;20296;-65
2021/03/12 01:16:37;;;;;;;27.30;12.07;;;;;;;-0.93;76.38;97486.41;5022810;28;20142;-65
2021/03/12 01:19:21;;;;;;;26.40;11.55;;;;;;;-3.25;77.19;97158.22;5024017;28;20049;-65
2021/03/12 01:22:05;;;;;;;25.52;11.38;;;;;;;-1.64;77.60;97426.41;5023181;28;20049;-65
2021/03/12 01:24:49;;;;;;;26.58;11.32;;;;;;;-3.20;78.22;97256.53;5022598;28;20411;-65
2021/03/12 01:27:38;;;;;;;19.25;8.88;;;;;;;-1.25;77.98;97526.91;5023905;28;20063;-65
2021/03/12 01:30:24;;;;;;;24.58;10.30;;;;;;;-4.91;78.29;96914.81;5023292;28;20128;-65
2021/03/12 01:33:08;;;;;;;25.73;10.75;;;;;;;-1.60;79.44;97451.91;5023719;28;20091;-65
2021/03/12 01:35:52;;;;;;;21.20;10.95;;;;;;;-1.43;79.68;97475.94;5021487;28;20080;-64
2021/03/12 01:38:36;;;;;;;23.92;11.60;;;;;;;-1.28;80.09;97511.16;5025360;28;20514;-64
2021/03/12 01:41:20;;;;;;;25.25;11.50;;;;;;;-1.15;79.82;97518.66;5025358;28;20506;-65
2021/03/12 01:44:05;;;;;;;24.67;10.95;;;;;;;-1.63;78.88;97434.28;5027228;28;20088;-66
2021/03/12 01:46:49;;;;;;;24.13;11.07;;;;;;;-0.88;78.25;97521.69;5025592;28;20412;-64
2021/03/12 01:49:33;;;;;;;26.38;11.23;;;;;;;-1.27;78.35;97455.72;5027102;28;20102;-64
2021/03/12 01:52:17;;;;;;;25.13;11.90;;;;;;;-0.56;78.25;97514.59;5025884;28;20036;-64
2021/03/12 01:55:01;;;;;;;23.45;10.60;;;;;;;-0.52;77.41;97510.19;5026494;28;20171;-65
2021/03/12 01:57:46;;;;;;;23.35;10.68;;;;;;;-0.99;76.02;97422.28;5026304;28;20084;-64
2021/03/12 02:00:31;;;;;;;19.65;11.10;;;;;;;-0.33;76.58;97507.53;5026999;28;20040;-64
2021/03/12 02:03:18;;;;;;;15.93;8.60;;;;;;;-0.73;76.01;97506.06;5025767;28;20056;-64
2021/03/12 02:06:03;;;;;;;24.70;10.63;;;;;;;-1.00;76.21;97507.66;5024871;28;20129;-63
2021/03/12 02:08:47;;;;;;;28.58;12.77;;;;;;;-0.89;77.86;97503.75;5027072;28;20047;-64
2021/03/12 02:11:33;;;;;;;24.55;12.15;;;;;;;-0.97;77.64;97475.28;5025166;28;20433;-63
2021/03/12 02:14:25;;;;;;;26.20;11.70;;;;;;;-0.73;78.25;97486.22;5027017;28;20052;-64
2021/03/12 02:17:16;;;;;;;20.50;9.63;;;;;;;-1.15;79.28;97484.16;5026023;28;20052;-63
2021/03/12 02:20:31;;;;;;;22.30;11.00;;;;;;;-1.24;80.18;97495.91;5026360;28;20048;-63
2021/03/12 02:23:39;;;;;;;23.30;9.32;;;;;;;-4.62;79.77;96962.50;5024782;28;20095;-64
2021/03/12 02:26:41;;;;;;;23.50;10.13;;;;;;;-1.45;80.72;97500.69;5025878;28;20431;-63
2021/03/12 02:29:26;;;;;;;27.35;11.45;;;;;;;-1.58;80.20;97474.97;5025119;28;20048;-62
2021/03/12 02:32:14;;;;;;;25.48;11.18;;;;;;;-2.35;79.09;97338.44;5025960;28;20377;-63
2021/03/12 02:35:01;;;;;;;23.50;10.85;;;;;;;-2.15;78.95;97389.88;5026021;28;20068;-63
2021/03/12 02:37:48;;;;;;;24.73;11.50;;;;;;;-1.57;78.56;97444.03;5026505;28;20103;-61
2021/03/12 02:40:34;;;;;;;23.27;10.88;;;;;;;-1.00;76.95;97485.91;5024798;28;20091;-62
2021/03/12 02:43:19;;;;;;;27.17;12.02;;;;;;;-1.09;78.33;97487.66;5026733;28;20083;-64
2021/03/12 02:46:05;;;;;;;24.58;11.07;;;;;;;-1.19;78.03;97485.00;5024387;28;20467;-63
2021/03/12 02:48:51;;;;;;;22.25;10.43;;;;;;;-2.02;78.16;97371.03;5026076;28;20499;-62
2021/03/12 02:51:35;;;;;;;24.05;11.35;;;;;;;-1.67;76.92;97378.91;5024798;28;20415;-63
2021/03/12 02:54:20;;;;;;;22.00;10.65;;;;;;;-1.21;77.75;97479.03;5026110;28;20536;-63
2021/03/12 02:57:05;;;;;;;34.40;13.63;;;;;;;-0.93;77.83;97470.91;5025466;28;20044;-64
2021/03/12 02:59:54;;;;;;;26.33;11.82;;;;;;;-1.03;76.90;97487.31;5025076;28;20044;-64
2021/03/12 03:02:38;;;;;;;21.25;11.38;;;;;;;-1.41;76.73;97386.84;5025818;28;20044;-64
2021/03/12 03:05:23;;;;;;;29.65;11.35;;;;;;;-0.65;76.01;97489.09;5025195;28;20063;-62
2021/03/12 03:08:09;;;;;;;22.55;11.60;;;;;;;-1.08;75.45;97424.03;5025861;28;20048;-63
2021/03/12 03:10:56;;;;;;;17.75;10.70;;;;;;;-4.24;75.46;96903.41;5025121;28;20048;-62
2021/03/12 03:13:44;;;;;;;22.60;11.35;;;;;;;-0.49;75.33;97492.50;5026102;28;20542;-62
2021/03/12 03:16:34;;;;;;;387.83;89.00;;;;;;;-0.42;76.35;97465.72;5025394;28;20048;-62
2021/03/12 03:19:19;;;;;;;124.53;35.58;;;;;;;-0.35;77.25;97477.09;5025360;28;20448;-63
2021/03/12 03:22:04;;;;;;;40.45;17.77;;;;;;;-1.02;76.67;97365.78;5023889;28;20510;-63
2021/03/12 03:24:49;;;;;;;35.10;16.50;;;;;;;-0.63;77.51;97426.25;5025793;28;20047;-64
2021/03/12 03:27:34;;;;;;;51.88;23.67;;;;;;;-0.42;78.06;97463.00;5025946;28;20052;-63
2021/03/12 03:30:18;;;;;;;41.45;20.40;;;;;;;-2.29;78.50;97150.97;5025263;28;20056;-69
2021/03/12 03:33:03;;;;;;;207.10;75.00;;;;;;;-0.24;77.42;97478.59;5024361;28;20129;-69
2021/03/12 03:35:48;;;;;;;127.95;51.83;;;;;;;-0.44;77.18;97462.47;5023731;28;20523;-68
2021/03/12 03:38:32;;;;;;;129.07;50.88;;;;;;;-0.94;77.50;97365.16;5025607;28;20051;-70
2021/03/12 03:41:18;;;;;;;64.55;29.30;;;;;;;-0.22;77.60;97463.56;5024764;28;20183;-69
2021/03/12 03:44:03;;;;;;;78.38;37.00;;;;;;;-0.12;77.02;97459.91;5025185;28;20130;-70
2021/03/12 03:46:48;;;;;;;63.50;29.20;;;;;;;-0.27;77.18;97468.28;5023294;28;20103;-69
2021/03/12 03:49:35;;;;;;;74.82;36.70;;;;;;;-0.24;76.97;97462.25;5024712;28;20637;-70
2021/03/12 03:52:22;;;;;;;84.50;39.28;;;;;;;-0.34;78.77;97473.25;5022909;28;20102;-71
2021/03/12 03:55:08;;;;;;;60.20;28.02;;;;;;;-0.32;79.27;97471.06;5024552;28;20057;-70
2021/03/12 03:57:52;;;;;;;76.00;34.15;;;;;;;-0.30;80.26;97466.16;5024770;28;20056;-70
2021/03/12 04:00:37;;;;;;;54.10;26.25;;;;;;;-0.95;80.44;97385.31;5024503;28;20036;-69
2021/03/12 04:03:23;;;;;;;51.25;25.58;;;;;;;-0.26;79.93;97465.28;5024748;28;20511;-70
2021/03/12 04:06:09;;;;;;;46.20;23.90;;;;;;;-0.74;80.83;97386.66;5023865;28;20163;-69
2021/03/12 04:08:53;;;;;;;48.75;25.33;;;;;;;-0.22;81.18;97444.53;5023151;28;20439;-70
2021/03/12 04:11:37;;;;;;;38.58;20.45;;;;;;;-0.24;81.15;97456.81;5021110;28;20095;-70
2021/03/12 04:14:22;;;;;;;40.80;21.38;;;;;;;-0.18;80.50;97461.09;5024414;28;20049;-70
2021/03/12 04:17:07;;;;;;;40.00;20.02;;;;;;;-0.24;80.39;97468.50;5023014;28;20047;-69
2021/03/12 04:19:53;;;;;;;40.67;19.52;;;;;;;-0.47;81.34;97454.91;5022921;28;20098;-68
2021/03/12 04:22:39;;;;;;;33.72;18.13;;;;;;;-1.12;81.80;97330.59;5024399;28;20110;-68
2021/03/12 04:25:25;;;;;;;37.60;18.75;;;;;;;-0.36;81.96;97438.16;5022582;28;20118;-68
2021/03/12 04:28:10;;;;;;;34.60;17.45;;;;;;;-0.45;82.77;97444.53;5024451;28;20052;-68
2021/03/12 04:30:55;;;;;;;35.95;18.55;;;;;;;-0.38;82.65;97450.47;5022248;28;20036;-70
2021/03/12 04:33:41;;;;;;;44.33;21.20;;;;;;;-0.40;82.30;97444.50;5022630;28;20056;-68
2021/03/12 04:36:26;;;;;;;39.92;19.85;;;;;;;-1.10;82.58;97303.91;5022429;28;20580;-68
2021/03/12 04:39:12;;;;;;;43.95;20.48;;;;;;;-0.30;82.18;97414.44;5023231;28;20071;-70
2021/03/12 04:41:57;;;;;;;43.40;21.95;;;;;;;-0.77;82.14;97365.50;5022441;28;20096;-71
2021/03/12 04:44:41;;;;;;;44.80;23.48;;;;;;;-0.36;80.33;97448.22;5023874;28;20545;-70
2021/03/12 04:47:25;;;;;;;103.45;48.65;;;;;;;-0.27;80.01;97446.50;5023558;28;20083;-70
2021/03/12 04:50:12;;;;;;;109.85;50.17;;;;;;;-0.25;79.97;97438.84;5023431;28;20036;-69
2021/03/12 04:52:57;;;;;;;71.88;34.42;;;;;;;-1.52;78.75;97233.22;5022593;28;20415;-69
2021/03/12 04:55:41;;;;;;;67.18;32.08;;;;;;;-0.27;78.57;97441.06;5022381;28;20123;-70
2021/03/12 04:58:25;;;;;;;66.00;31.00;;;;;;;-0.31;80.11;97434.56;5024381;28;20052;-70
2021/03/12 05:01:10;;;;;;;62.22;29.52;;;;;;;-0.75;81.25;97385.06;5022733;28;20510;-70
2021/03/12 05:03:55;;;;;;;65.88;32.33;;;;;;;-0.20;80.98;97442.31;5013539;28;20624;-70
2021/03/12 05:06:44;;;;;;;105.30;45.60;;;;;;;-0.06;80.39;97442.41;5003014;28;20057;-70
2021/03/12 05:09:28;;;;;;;111.22;50.30;;;;;;;-0.56;79.70;97356.00;5003968;28;20052;-70
2021/03/12 05:12:14;;;;;;;78.00;36.78;;;;;;;0.02;80.25;97439.03;5001950;28;20559;-68
2021/03/12 05:14:58;;;;;;;72.97;33.40;;;;;;;0.07;80.53;97443.59;5003869;28;20431;-70
2021/03/12 05:17:42;;;;;;;67.90;31.85;;;;;;;-0.28;80.23;97390.44;5004233;28;20550;-70
2021/03/12 05:20:26;;;;;;;61.88;27.70;;;;;;;0.21;79.63;97442.56;5002737;28;20076;-70
2021/03/12 05:23:10;;;;;;;44.78;24.10;;;;;;;0.23;78.93;97442.28;5002904;28;20080;-69
2021/03/12 05:25:54;;;;;;;37.95;20.40;;;;;;;-2.48;78.21;96998.22;5003342;28;20161;-70
2021/03/12 05:28:38;;;;;;;37.03;19.33;;;;;;;0.47;77.44;97441.09;5030812;28;20435;-70
2021/03/12 05:31:26;;;;;;;44.45;21.50;;;;;;;0.19;77.59;97405.84;5002127;28;20052;-69
2021/03/12 05:34:10;;;;;;;44.38;21.15;;;;;;;-0.06;77.31;97322.63;5003768;28;20523;-70
2021/03/12 05:36:54;;;;;;;50.92;23.90;;;;;;;0.39;75.59;97395.47;5003696;28;20129;-70
2021/03/12 05:39:38;;;;;;;53.10;25.85;;;;;;;0.80;75.37;97450.94;5002877;28;20049;-70
2021/03/12 05:42:25;;;;;;;59.88;29.05;;;;;;;0.86;74.44;97433.38;5003344;28;20284;-69
2021/03/12 05:45:10;;;;;;;74.22;31.80;;;;;;;0.90;75.44;97439.84;4996207;28;20656;-69
2021/03/12 05:47:55;;;;;;;67.75;31.90;;;;;;;1.08;74.17;97428.06;4982683;28;20476;-70
2021/03/12 05:50:39;;;;;;;67.57;31.67;;;;;;;1.05;73.23;97464.13;4996127;28;20053;-71
2021/03/12 05:53:24;;;;;;;67.68;32.28;;;;;;;1.17;71.89;97456.28;4984094;28;20045;-68
2021/03/12 05:56:07;;;;;;;59.53;29.48;;;;;;;0.94;70.55;97391.78;4983553;28;20050;-69
2021/03/12 05:58:52;;;;;;;45.95;23.58;;;;;;;0.52;71.17;97389.22;4984448;28;20082;-66
2021/03/12 06:01:36;;;;;;;45.80;22.45;;;;;;;0.87;70.31;97402.25;4983448;28;20228;-66
2021/03/12 06:04:20;;;;;;;45.78;22.08;;;;;;;-0.73;72.67;97252.34;4984144;28;20120;-66
2021/03/12 06:07:04;;;;;;;46.33;20.63;;;;;;;0.92;71.78;97437.63;4983176;28;20089;-66
2021/03/12 06:09:49;;;;;;;34.92;16.95;;;;;;;0.16;71.54;97328.25;4984236;28;20108;-69
2021/03/12 06:12:34;;;;;;;31.83;15.65;;;;;;;1.07;70.43;97439.28;4983967;28;20046;-69
2021/03/12 06:15:18;;;;;;;30.10;15.32;;;;;;;1.14;70.50;97451.41;4983087;28;20050;-69
2021/03/12 06:18:25;;;;;;;28.92;13.82;;;;;;;1.25;69.17;97452.03;4982842;28;20425;-69
2021/03/12 06:21:28;;;;;;;27.05;14.27;;;;;;;1.31;68.64;97402.53;4984638;28;20077;-70
2021/03/12 06:24:21;;;;;;;31.35;14.57;;;;;;;1.64;69.67;97448.84;4983925;28;20192;-69
2021/03/12 06:27:05;;;;;;;26.73;12.30;;;;;;;1.88;67.77;97444.00;4987272;28;20045;-69
2021/03/12 06:29:49;;;;;;;23.35;12.10;;;;;;;1.63;66.63;97441.78;4987812;28;20165;-69
2021/03/12 06:32:45;;;;;;;27.05;14.05;;;;;;;2.05;66.44;97455.09;4987393;28;20181;-66
2021/03/12 06:35:37;;;;;;;31.90;17.15;;;;;;;-0.25;67.16;96987.09;4999255;28;20437;-68
2021/03/12 06:38:21;;;;;;;35.13;18.48;;;;;;;2.94;64.73;97434.97;5004077;28;20096;-63
2021/03/12 06:41:05;;;;;;;36.25;16.95;;;;;;;2.70;63.20;97382.50;4996319;28;20056;-69
2021/03/12 06:43:49;;;;;;;36.00;18.02;;;;;;;3.19;64.24;97437.06;5005872;28;20129;-69
2021/03/12 06:46:46;;;;;;;28.10;14.65;;;;;;;2.00;60.24;97231.22;5005363;28;20175;-67
2021/03/12 06:49:30;;;;;;;28.00;14.13;;;;;;;3.22;60.34;97402.78;4999682;28;20093;-63
2021/03/12 06:52:14;;;;;;;20.30;10.82;;;;;;;2.85;55.41;97387.59;5005034;28;20096;-65
2021/03/12 06:54:58;;;;;;;18.05;9.35;;;;;;;2.40;55.19;97402.38;5005372;28;20555;-65
2021/03/12 06:57:43;;;;;;;59.83;25.08;;;;;;;2.71;57.22;97485.31;5005866;28;20040;-63
2021/03/12 07:00:33;;;;;;;32.25;14.82;;;;;;;2.24;56.85;97382.00;5005324;28;20416;-61
2021/03/12 07:03:26;;;;;;;20.60;10.60;;;;;;;2.95;57.38;97480.34;5005796;28;20087;-61
2021/03/12 07:06:17;;;;;;;21.80;10.93;;;;;;;2.28;56.64;97361.13;5005415;28;20116;-60
2021/03/12 07:09:06;;;;;;;18.05;9.43;;;;;;;2.80;56.22;97434.22;5010443;28;20542;-62
2021/03/12 07:11:58;;;;;;;20.70;11.65;;;;;;;3.16;56.30;97465.06;5005396;28;20566;-61
2021/03/12 07:14:42;;;;;;;26.00;13.68;;;;;;;2.87;58.00;97456.47;5001710;28;20064;-64
2021/03/12 07:17:26;;;;;;;23.00;11.38;;;;;;;2.08;57.30;97459.94;4999674;28;20042;-62
2021/03/12 07:20:13;;;;;;;22.50;12.07;;;;;;;1.60;58.22;97387.78;4986058;28;20095;-63
2021/03/12 07:22:59;;;;;;;24.13;12.32;;;;;;;2.60;58.24;97489.41;5005193;28;20429;-59
2021/03/12 07:25:45;;;;;;;23.52;12.88;;;;;;;2.99;57.93;97493.09;5004381;28;20590;-63
2021/03/12 07:28:30;;;;;;;21.23;11.65;;;;;;;2.43;58.16;97478.31;5004001;28;20052;-63
2021/03/12 07:31:16;;;;;;;20.85;11.40;;;;;;;2.89;57.01;97460.50;5003814;28;20469;-63
2021/03/12 07:34:10;;;;;;;20.63;11.10;;;;;;;2.89;55.37;97424.16;5005698;28;20100;-63
2021/03/12 07:36:55;;;;;;;21.67;11.35;;;;;;;2.39;54.14;97269.56;5004408;28;20432;-61
2021/03/12 07:39:42;;;;;;;24.27;12.10;;;;;;;4.00;55.69;97452.88;5002496;28;20599;-64
2021/03/12 07:42:27;;;;;;;22.35;12.00;;;;;;;4.17;53.94;97466.63;5003996;28;20411;-63
2021/03/12 07:45:12;;;;;;;26.35;15.50;;;;;;;4.41;54.62;97491.69;5000931;28;20575;-69
2021/03/12 07:47:57;;;;;;;23.10;12.98;;;;;;;4.69;52.35;97487.50;4991825;28;20420;-57
2021/03/12 07:50:41;;;;;;;26.58;14.98;;;;;;;4.30;52.73;97430.03;5003254;28;20060;-62
2021/03/12 07:53:43;;;;;;;35.35;18.08;;;;;;;5.05;52.17;97472.66;5005202;28;20049;-61
2021/03/12 07:56:53;;;;;;;30.20;15.75;;;;;;;5.43;49.48;97473.59;5005132;28;20053;-64
2021/03/12 07:59:46;;;;;;;30.50;16.83;;;;;;;5.49;48.85;97472.28;5005453;28;20536;-64
2021/03/12 08:02:49;;;;;;;34.67;18.97;;;;;;;5.60;48.59;97485.34;5004071;28;20041;-62
2021/03/12 08:05:35;;;;;;;41.10;19.92;;;;;;;5.39;48.80;97475.38;4984640;28;20747;-63
2021/03/12 08:08:33;;;;;;;36.72;21.23;;;;;;;5.30;48.41;97417.72;4985640;28;20124;-63
2021/03/12 08:11:21;;;;;;;39.63;21.15;;;;;;;5.78;48.75;97464.13;4984815;28;20093;-62
2021/03/12 08:14:09;;;;;;;38.67;20.75;;;;;;;5.98;49.28;97463.41;4985226;28;20109;-62
2021/03/12 08:17:00;;;;;;;40.78;22.33;;;;;;;5.63;49.92;97467.38;4984597;28;20140;-64
2021/03/12 08:19:48;;;;;;;31.00;18.95;;;;;;;6.02;47.95;97472.63;4985327;28;20045;-63
2021/03/12 08:22:32;;;;;;;33.00;20.20;;;;;;;5.41;48.47;97459.38;4985182;28;20077;-63
2021/03/12 08:25:31;;;;;;;36.22;21.60;;;;;;;5.68;48.06;97454.28;4984098;28;20089;-64
2021/03/12 08:28:15;;;;;;;36.38;21.92;;;;;;;6.04;47.84;97451.06;4985004;28;20121;-64
2021/03/12 08:31:02;;;;;;;36.47;21.73;;;;;;;6.14;47.75;97445.22;4983939;28;20044;-63
2021/03/12 08:33:45;;;;;;;43.65;23.13;;;;;;;6.41;47.19;97439.22;4985760;28;20488;-63
2021/03/12 08:36:32;;;;;;;26.73;15.40;;;;;;;5.90;45.81;97428.50;5003798;28;20416;-63
2021/03/12 08:39:27;;;;;;;30.35;15.55;;;;;;;5.49;45.94;97299.19;5003930;28;20084;-63
2021/03/12 08:42:16;;;;;;;26.17;13.68;;;;;;;6.13;45.90;97435.34;5003982;28;20044;-63
2021/03/12 08:45:00;;;;;;;24.92;12.35;;;;;;;4.99;45.28;97309.28;5002492;28;20040;-63
2021/03/12 08:47:44;;;;;;;25.05;11.25;;;;;;;5.65;45.22;97421.16;5002248;28;20041;-64
2021/03/12 08:50:28;;;;;;;17.85;10.30;;;;;;;5.87;44.73;97429.16;5003510;28;20099;-64
2021/03/12 08:53:13;;;;;;;13.27;9.20;;;;;;;3.30;44.71;97005.91;5002842;28;20665;-63
2021/03/12 08:55:59;;;;;;;23.65;12.35;;;;;;;5.98;45.91;97452.41;5003475;28;20467;-62
2021/03/12 08:58:43;;;;;;;14.07;9.07;;;;;;;5.78;45.21;97418.19;5003365;28;20041;-64
2021/03/12 09:01:30;;;;;;;16.42;9.98;;;;;;;5.19;46.37;97336.00;5002935;28;20515;-61
2021/03/12 09:04:14;;;;;;;18.63;10.35;;;;;;;5.03;45.64;97277.28;5031435;28;20522;-63
2021/03/12 09:07:01;;;;;;;29.65;10.43;;;;;;;4.87;46.90;97252.31;5003436;28;20071;-63
2021/03/12 09:09:45;;;;;;;17.00;8.95;;;;;;;5.22;45.74;97346.31;5003717;28;20141;-64
2021/03/12 09:12:32;;;;;;;16.80;10.15;;;;;;;5.24;45.95;97382.50;5003618;28;20080;-64
2021/03/12 09:15:24;;;;;;;14.38;8.85;;;;;;;4.94;46.93;97367.91;5002514;28;20099;-63
2021/03/12 09:18:08;;;;;;;15.95;9.02;;;;;;;5.12;46.75;97415.34;5003000;28;20053;-62
2021/03/12 09:20:59;;;;;;;17.23;10.45;;;;;;;4.33;48.63;97379.25;4990786;28;20056;-61
2021/03/12 09:23:45;;;;;;;17.20;10.35;;;;;;;4.97;48.49;97402.09;5003042;28;20045;-61
2021/03/12 09:26:35;;;;;;;18.73;10.15;;;;;;;4.20;51.01;97400.22;5001149;28;20052;-63
2021/03/12 09:29:19;;;;;;;21.20;11.63;;;;;;;4.54;51.31;97402.97;4999841;28;20580;-69
2021/03/12 09:32:05;;;;;;;18.75;10.75;;;;;;;3.99;49.03;97250.41;4997113;28;20053;-63
2021/03/12 09:34:49;;;;;;;20.00;11.20;;;;;;;5.07;48.81;97396.28;4994290;28;20041;-66
2021/03/12 09:37:41;;;;;;;23.58;11.70;;;;;;;4.84;49.21;97312.56;5003168;28;20150;-64
2021/03/12 09:40:34;;;;;;;22.33;11.45;;;;;;;5.35;48.95;97373.59;5003512;28;20036;-63
2021/03/12 09:43:18;;;;;;;23.27;12.50;;;;;;;5.54;49.21;97371.25;5004181;28;20131;-63
2021/03/12 09:46:03;;;;;;;17.52;11.88;;;;;;;5.96;48.27;97361.19;5003087;28;20118;-64
2021/03/12 09:48:47;;;;;;;19.05;11.18;;;;;;;5.96;47.11;97308.97;5003535;28;20044;-65
2021/03/12 09:51:32;;;;;;;23.48;11.65;;;;;;;6.89;45.64;97345.88;5002922;28;20077;-64
2021/03/12 09:54:18;;;;;;;20.40;12.80;;;;;;;6.79;47.42;97324.28;4982688;28;20049;-66
2021/03/12 09:57:02;;;;;;;23.50;15.07;;;;;;;7.73;45.42;97343.28;4983778;28;21264;-64
2021/03/12 09:59:50;;;;;;;23.15;13.05;;;;;;;7.21;44.79;97330.47;4985152;28;20494;-65
2021/03/12 10:02:47;;;;;;;25.35;13.40;;;;;;;7.33;46.11;97334.03;4986674;28;20095;-64
2021/03/12 10:05:32;;;;;;;28.40;15.07;;;;;;;5.90;48.42;97201.16;4986561;28;20120;-64
2021/03/12 10:08:16;;;;;;;27.85;16.45;;;;;;;7.01;46.71;97273.50;4987270;28;20040;-64
2021/03/12 10:11:00;;;;;;;33.88;19.85;;;;;;;7.31;46.70;97263.91;4985842;28;20115;-64
2021/03/12 10:13:43;;;;;;;23.90;15.73;;;;;;;7.63;47.37;97305.13;4987375;28;20500;-65
2021/03/12 10:16:27;;;;;;;25.88;14.55;;;;;;;7.84;45.60;97309.72;4985550;28;20603;-64
2021/03/12 10:19:12;;;;;;;24.02;14.32;;;;;;;7.88;45.57;97305.94;4987489;28;20610;-65
2021/03/12 10:21:55;;;;;;;27.92;16.10;;;;;;;7.28;46.46;97248.88;4985767;28;20041;-65
2021/03/12 10:24:39;;;;;;;24.23;16.70;;;;;;;7.38;46.21;97215.34;4987251;28;20061;-65
2021/03/12 10:27:25;;;;;;;24.13;15.52;;;;;;;8.27;46.27;97345.78;4986926;28;20037;-66
2021/03/12 10:30:11;;;;;;;21.52;14.52;;;;;;;8.49;45.66;97276.25;4985678;28;20053;-65
2021/03/12 10:33:07;;;;;;;22.85;14.68;;;;;;;8.52;46.65;97286.63;4985739;28;20081;-65
2021/03/12 10:35:56;;;;;;;25.98;15.93;;;;;;;8.41;46.29;97293.78;5005940;28;20595;-65
2021/03/12 10:38:46;;;;;;;26.23;15.77;;;;;;;5.82;46.25;96882.41;5006943;28;20524;-66
2021/03/12 10:41:30;;;;;;;28.80;17.65;;;;;;;8.41;46.03;97285.50;5006681;28;20571;-65
2021/03/12 10:44:14;;;;;;;21.95;13.80;;;;;;;8.06;45.48;97207.19;5006491;28;20108;-65
2021/03/12 10:47:09;;;;;;;23.55;14.25;;;;;;;8.66;46.17;97265.72;5006312;28;20044;-66
2021/03/12 10:49:54;;;;;;;25.65;16.15;;;;;;;8.40;44.90;97190.84;5005014;28;20103;-65
2021/03/12 10:52:38;;;;;;;23.83;14.50;;;;;;;8.65;45.60;97236.50;5006472;28;20080;-66
2021/03/12 10:55:22;;;;;;;24.25;16.02;;;;;;;9.13;44.78;97271.34;5006021;28;20412;-66
2021/03/12 10:58:20;;;;;;;41.50;21.65;;;;;;;8.75;45.45;97246.22;5006768;28;20131;-65
2021/03/12 11:01:14;;;;;;;22.40;15.63;;;;;;;8.94;46.47;97251.88;5004573;28;20037;-66
2021/03/12 11:04:00;;;;;;;26.17;16.67;;;;;;;9.17;45.47;97252.88;5005191;28;20120;-66
2021/03/12 11:06:45;;;;;;;27.00;17.00;;;;;;;8.82;45.85;97208.53;5005247;28;20063;-65
2021/03/12 11:09:28;;;;;;;21.38;15.50;;;;;;;9.15;45.58;97233.09;5006005;28;20119;-65
2021/03/12 11:12:13;;;;;;;24.75;16.05;;;;;;;9.46;44.85;97222.00;5004811;28;20052;-65
2021/03/12 11:14:57;;;;;;;24.05;15.68;;;;;;;9.32;44.71;97216.16;5004949;28;20041;-66
2021/03/12 11:17:45;;;;;;;27.77;15.88;;;;;;;7.97;46.33;97044.59;5005683;28;20040;-65
2021/03/12 11:20:29;;;;;;;26.73;15.65;;;;;;;8.24;47.04;97194.72;5005588;28;20072;-65
2021/03/12 11:23:13;;;;;;;18.85;11.30;;;;;;;8.00;46.96;97205.81;5005848;28;20108;-65
2021/03/12 11:25:58;;;;;;;19.95;11.23;;;;;;;5.42;50.29;97054.47;5004512;28;20598;-64
2021/03/12 11:28:42;;;;;;;20.02;12.25;;;;;;;6.52;50.18;97180.97;5004725;28;20575;-65
2021/03/12 11:31:27;;;;;;;24.25;13.82;;;;;;;6.93;50.74;97202.81;5005355;28;20053;-65
2021/03/12 11:34:11;;;;;;;22.35;13.48;;;;;;;7.56;49.02;97194.66;5004557;28;20056;-65
2021/03/12 11:36:56;;;;;;;23.77;12.50;;;;;;;7.74;47.73;97157.38;5004922;28;20087;-66
2021/03/12 11:39:40;;;;;;;20.83;12.50;;;;;;;8.05;47.42;97173.25;5003997;28;20044;-65
2021/03/12 11:42:24;;;;;;;20.73;12.05;;;;;;;7.60;47.92;97162.47;5004190;28;20044;-65
2021/03/12 11:45:10;;;;;;;18.20;11.23;;;;;;;8.23;47.07;97182.06;5005955;28;20045;-65
2021/03/12 11:47:58;;;;;;;19.58;12.25;;;;;;;8.17;46.55;97106.19;5024577;28;20403;-66
2021/03/12 11:50:42;;;;;;;24.25;13.15;;;;;;;7.96;48.21;97169.03;5006748;28;20092;-66
2021/03/12 11:53:27;;;;;;;22.98;12.85;;;;;;;8.35;47.87;97137.84;5004144;28;20064;-66
2021/03/12 11:56:11;;;;;;;17.17;11.60;;;;;;;8.11;47.07;97133.22;5003448;28;20048;-65
2021/03/12 11:58:55;;;;;;;16.70;11.00;;;;;;;8.42;46.56;97055.25;5006757;28;20053;-66
2021/03/12 12:01:39;;;;;;;16.35;11.25;;;;;;;9.02;46.70;97137.63;5004020;28;20424;-66
2021/03/12 12:04:23;;;;;;;17.90;11.65;;;;;;;9.19;45.77;97140.00;5004061;28;20048;-65
2021/03/12 12:07:07;;;;;;;17.23;11.68;;;;;;;8.85;45.36;97066.97;5015359;28;20543;-66
2021/03/12 12:09:51;;;;;;;18.42;10.93;;;;;;;9.07;44.90;97051.72;4985322;28;20421;-66
2021/03/12 12:12:36;;;;;;;16.95;11.65;;;;;;;9.14;44.78;97060.13;4986187;28;20533;-67
2021/03/12 12:15:21;;;;;;;16.17;10.80;;;;;;;9.30;43.63;97019.44;4985283;28;20190;-66
2021/03/12 12:18:07;;;;;;;17.17;11.25;;;;;;;10.14;44.48;97115.28;4985214;28;20528;-66
2021/03/12 12:20:52;;;;;;;16.00;10.95;;;;;;;10.31;43.43;97095.41;4997029;28;20061;-65
2021/03/12 12:23:36;;;;;;;15.93;11.13;;;;;;;10.29;43.99;97100.53;5005592;28;20476;-65
2021/03/12 12:26:20;;;;;;;17.05;11.57;;;;;;;10.50;43.30;97100.91;5004102;28;20515;-65
2021/03/12 12:29:04;;;;;;;;;;;;;;;10.67;42.96;97100.44;5004078;28;20531;-67
2021/03/12 12:31:48;;;;;;;;;;;;;;;10.41;42.86;97097.59;5002868;28;20015;-64
2021/03/12 12:34:32;;;;;;;19.75;12.98;;;;;;;7.76;45.60;96734.44;5003651;28;20010;-70
2021/03/12 12:37:16;;;;;;;;;;;;;;;10.35;44.23;97076.91;5003840;28;20475;-70
2021/03/12 12:40:01;;;;;;;19.10;13.57;;;;;;;9.12;44.10;96894.72;5003559;28;19979;-67
2021/03/12 12:42:45;;;;;;;20.38;12.75;;;;;;;10.38;43.75;97018.03;5001977;28;20096;-66
2021/03/12 12:45:30;;;;;;;19.65;13.45;;;;;;;9.14;42.68;96820.56;5002962;28;20049;-68
2021/03/12 12:48:14;;;;;;;23.23;14.80;;;;;;;10.84;43.42;97078.94;5004603;28;20100;-70
2021/03/12 12:50:58;;;;;;;19.33;12.32;;;;;;;10.58;43.24;97052.78;5001865;28;20036;-68